Time;durP1;ratioP1;P1;durP2;ratioP2;P2;SDS_P1;SDS_P2;PMS_P1;PMS_P2;Temp;Humidity;BMP_temperature;BMP_pressure;BME280_temperature;BME280_humidity;BME280_pressure;Samples;Min_cycle;Max_cycle;Signal;HPM_P1;HPM_P2
2022/07/01 00:00:26;;;;;;;2.80;1.60;;;;;;;18.60;93.84;98172.97;4125337;28;20630;-86
2022/07/01 00:02:29;;;;;;;2.50;1.40;;;;;;;18.55;93.43;98175.25;4144923;28;20641;-87
2022/07/01 00:04:33;;;;;;;3.23;1.30;;;;;;;18.52;93.31;98172.91;4143721;28;20695;-87
2022/07/01 00:06:54;;;;;;;3.00;1.40;;;;;;;18.47;93.81;98174.34;4141003;28;20678;-86
2022/07/01 00:08:59;;;;;;;3.37;1.30;;;;;;;18.42;93.88;98171.31;4133293;28;21260;-86
2022/07/01 00:11:02;;;;;;;4.30;1.23;;;;;;;18.38;93.11;98177.06;4146262;28;20640;-86
2022/07/01 00:13:06;;;;;;;2.07;1.20;;;;;;;18.30;92.90;98175.16;4124069;28;20738;-87
2022/07/01 00:15:10;;;;;;;3.70;1.53;;;;;;;18.29;93.70;98183.25;4140360;28;20678;-86
2022/07/01 00:17:13;;;;;;;5.03;1.07;;;;;;;18.27;93.12;98178.09;4137286;28;20653;-86
2022/07/01 00:19:17;;;;;;;3.33;1.30;;;;;;;18.24;93.39;98181.03;4143650;28;20744;-86
2022/07/01 00:21:20;;;;;;;2.33;1.30;;;;;;;18.23;93.19;98186.47;4144591;28;21235;-87
2022/07/01 00:23:23;;;;;;;2.00;1.27;;;;;;;18.22;93.46;98184.81;4127963;28;20739;-86
2022/07/01 00:25:28;;;;;;;3.53;1.43;;;;;;;18.22;93.77;98192.72;4143386;28;20641;-86
2022/07/01 00:27:31;;;;;;;1.87;1.17;;;;;;;18.20;94.31;98186.78;4129778;28;20652;-86
2022/07/01 00:29:34;;;;;;;3.60;1.10;;;;;;;18.18;93.55;98194.84;4144611;28;21024;-86
2022/07/01 00:31:38;;;;;;;3.63;1.57;;;;;;;18.21;93.98;98199.00;4140494;28;21196;-86
2022/07/01 00:33:41;;;;;;;2.77;1.40;;;;;;;18.20;94.38;98198.16;4129901;28;20670;-86
2022/07/01 00:35:44;;;;;;;7.13;1.40;;;;;;;18.16;94.21;98199.44;4132309;28;21318;-86
2022/07/01 00:37:47;;;;;;;2.10;1.40;;;;;;;18.15;94.35;98194.31;4129417;28;20980;-86
2022/07/01 00:39:51;;;;;;;2.37;1.03;;;;;;;18.11;93.51;98196.38;4138076;28;20633;-86
2022/07/01 00:41:59;;;;;;;2.00;1.13;;;;;;;18.09;94.46;98202.81;4142252;28;20639;-86
2022/07/01 00:44:03;;;;;;;3.37;1.53;;;;;;;18.07;94.41;98197.66;4143835;28;20733;-87
2022/07/01 00:46:06;;;;;;;2.27;1.10;;;;;;;18.05;94.69;98196.97;4147010;28;20735;-86
2022/07/01 00:48:09;;;;;;;1.70;1.00;;;;;;;18.00;93.80;98199.22;4125953;28;20650;-86
2022/07/01 00:50:14;;;;;;;2.07;1.00;;;;;;;17.97;93.65;98201.34;4145201;28;21276;-87
2022/07/01 00:52:17;;;;;;;3.30;1.20;;;;;;;17.97;93.35;98198.69;4129352;28;20665;-86
2022/07/01 00:54:21;;;;;;;3.67;1.23;;;;;;;17.97;94.36;98206.63;4140946;28;20635;-87
2022/07/01 00:56:24;;;;;;;1.97;1.10;;;;;;;17.95;93.52;98206.75;4142381;28;20638;-86
2022/07/01 00:58:29;;;;;;;6.93;1.10;;;;;;;17.97;93.94;98209.25;4146140;28;20693;-86
2022/07/01 01:00:32;;;;;;;2.33;1.00;;;;;;;17.92;93.59;98211.50;4159004;28;20640;-87
2022/07/01 01:02:36;;;;;;;2.73;1.23;;;;;;;17.89;93.50;98209.16;4131976;28;21074;-87
2022/07/01 01:04:39;;;;;;;2.27;1.30;;;;;;;17.84;94.84;98205.28;4141156;28;20762;-86
2022/07/01 01:06:43;;;;;;;3.00;1.27;;;;;;;17.83;94.28;98193.91;4119055;28;21524;-86
2022/07/01 01:08:48;;;;;;;3.50;1.10;;;;;;;17.81;94.95;98189.75;4127229;28;21088;-86
2022/07/01 01:10:52;;;;;;;3.33;1.70;;;;;;;17.80;94.88;98186.28;4137795;28;21211;-86
2022/07/01 01:12:56;;;;;;;2.40;1.20;;;;;;;17.79;94.57;98168.78;4127798;28;20691;-86
2022/07/01 01:15:01;;;;;;;2.10;1.20;;;;;;;17.81;94.57;98166.81;4123362;28;20642;-87
2022/07/01 01:17:04;;;;;;;1.63;0.93;;;;;;;17.81;93.50;98163.38;4127176;28;20637;-86
2022/07/01 01:19:07;;;;;;;2.57;1.13;;;;;;;17.81;94.00;98155.44;4142230;28;20656;-87
2022/07/01 01:21:12;;;;;;;2.67;1.20;;;;;;;17.78;94.69;98164.47;4142345;28;20637;-86
2022/07/01 01:23:16;;;;;;;1.97;1.20;;;;;;;17.77;94.25;98160.19;4132917;28;20636;-86
2022/07/01 01:25:19;;;;;;;4.30;1.10;;;;;;;17.77;95.64;98157.56;4146537;28;21119;-86
2022/07/01 01:27:22;;;;;;;3.90;1.40;;;;;;;17.78;94.95;98158.38;4141493;28;20681;-86
2022/07/01 01:29:25;;;;;;;5.60;1.10;;;;;;;17.73;95.13;98156.19;4143119;28;20631;-86
2022/07/01 01:31:30;;;;;;;2.97;1.30;;;;;;;17.72;95.55;98143.97;4139822;28;20646;-86
2022/07/01 01:33:33;;;;;;;4.90;1.20;;;;;;;17.72;95.36;98149.22;4123334;28;20725;-86
2022/07/01 01:35:36;;;;;;;2.03;1.10;;;;;;;17.71;95.48;98142.31;4139410;28;20726;-86
2022/07/01 01:37:40;;;;;;;4.23;1.47;;;;;;;17.69;95.01;98138.16;4130981;28;21228;-86
2022/07/01 01:39:43;;;;;;;4.70;1.70;;;;;;;17.66;95.85;98139.25;4139416;28;20634;-86
2022/07/01 01:41:47;;;;;;;4.80;1.30;;;;;;;17.66;95.98;98136.63;4122376;28;20647;-87
2022/07/01 01:43:50;;;;;;;3.40;1.20;;;;;;;17.67;94.56;98130.38;4129099;28;20633;-86
2022/07/01 01:45:53;;;;;;;2.03;1.20;;;;;;;17.64;95.20;98106.94;4127540;28;21227;-87
2022/07/01 01:47:56;;;;;;;2.73;1.40;;;;;;;17.61;95.00;98111.69;4143110;28;20656;-86
2022/07/01 01:49:59;;;;;;;2.37;1.20;;;;;;;17.58;94.58;98101.44;4139486;28;21238;-86
2022/07/01 01:52:03;;;;;;;1.80;1.10;;;;;;;17.57;95.24;98092.66;4144173;28;20631;-86
2022/07/01 01:54:07;;;;;;;2.90;1.50;;;;;;;17.60;95.96;98081.00;4132737;28;20645;-86
2022/07/01 01:56:10;;;;;;;1.80;1.30;;;;;;;17.58;96.03;98075.88;4157968;28;20631;-86
2022/07/01 01:58:13;;;;;;;3.43;1.53;;;;;;;17.56;95.74;98064.63;4128291;28;20682;-86
2022/07/01 02:00:17;;;;;;;2.20;1.23;;;;;;;17.58;95.73;98072.41;4143195;28;20636;-86
2022/07/01 02:02:20;;;;;;;3.10;1.70;;;;;;;17.54;95.77;98068.41;4138325;28;21233;-86
2022/07/01 02:04:24;;;;;;;4.70;1.63;;;;;;;17.54;96.03;98079.75;4126881;28;21098;-87
2022/07/01 02:06:27;;;;;;;3.97;1.27;;;;;;;17.53;94.44;98095.78;4139443;28;20675;-86
2022/07/01 02:08:31;;;;;;;4.67;1.50;;;;;;;17.53;94.76;98101.03;4124781;28;20647;-86
2022/07/01 02:10:35;;;;;;;2.80;1.83;;;;;;;17.54;95.03;98098.22;4146362;28;21236;-86
2022/07/01 02:12:38;;;;;;;3.20;1.60;;;;;;;17.52;95.72;98091.47;4143646;28;20639;-86
2022/07/01 02:14:42;;;;;;;2.00;1.47;;;;;;;17.53;95.83;98085.22;4130961;28;20647;-87
2022/07/01 02:16:45;;;;;;;2.83;1.30;;;;;;;17.53;94.45;98080.75;4128976;28;21030;-86
2022/07/01 02:18:48;;;;;;;2.53;1.77;;;;;;;17.52;94.84;98084.38;4144471;28;20706;-86
2022/07/01 02:20:55;;;;;;;3.13;1.23;;;;;;;17.48;95.67;98095.34;4140883;28;20655;-86
2022/07/01 02:22:58;;;;;;;3.40;1.60;;;;;;;17.46;95.55;98088.59;4144588;28;21058;-86
2022/07/01 02:25:01;;;;;;;2.67;1.20;;;;;;;17.45;94.72;98093.00;4145420;28;20682;-87
2022/07/01 02:27:05;;;;;;;2.70;1.30;;;;;;;17.46;94.62;98088.59;4145319;28;21008;-86
2022/07/01 02:29:08;;;;;;;2.37;1.30;;;;;;;17.42;95.21;98087.22;4128399;28;20658;-86
2022/07/01 02:31:12;;;;;;;2.43;1.13;;;;;;;17.40;93.20;98091.81;4126739;28;20629;-86
2022/07/01 02:33:15;;;;;;;3.57;1.20;;;;;;;17.32;93.77;98086.41;4139582;28;20796;-86
2022/07/01 02:35:18;;;;;;;1.80;1.10;;;;;;;17.31;93.97;98092.69;4125621;28;20640;-85
2022/07/01 02:37:21;;;;;;;2.00;1.20;;;;;;;17.31;95.08;98097.97;4148528;28;20637;-86
2022/07/01 02:39:24;;;;;;;1.50;0.83;;;;;;;17.31;93.72;98095.31;4129160;28;20647;-86
2022/07/01 02:41:27;;;;;;;2.70;1.27;;;;;;;17.32;94.20;98094.31;4148827;28;21335;-86
2022/07/01 02:43:32;;;;;;;1.70;0.90;;;;;;;17.31;94.00;98088.22;4128224;28;20632;-85
2022/07/01 02:45:35;;;;;;;2.40;1.10;;;;;;;17.29;94.99;98103.38;4128576;28;20639;-86
2022/07/01 02:47:39;;;;;;;4.43;0.87;;;;;;;17.26;94.93;98102.81;4135801;28;20702;-86
2022/07/01 02:49:42;;;;;;;4.83;1.00;;;;;;;17.27;93.55;98112.41;4128231;28;20649;-86
2022/07/01 02:51:46;;;;;;;3.93;1.20;;;;;;;17.26;93.99;98111.56;4139770;28;20671;-86
2022/07/01 02:53:49;;;;;;;1.80;1.00;;;;;;;17.26;94.64;98113.38;4142028;28;20638;-86
2022/07/01 02:55:52;;;;;;;1.60;0.90;;;;;;;17.24;94.76;98126.69;4132248;28;20756;-86
2022/07/01 02:57:55;;;;;;;1.93;1.10;;;;;;;17.26;94.28;98129.19;4127308;28;20642;-86
2022/07/01 03:00:00;;;;;;;2.10;1.13;;;;;;;17.24;93.96;98142.50;4128492;28;20691;-86
2022/07/01 03:02:03;;;;;;;3.30;1.30;;;;;;;17.23;95.01;98143.50;4141510;28;20631;-86
2022/07/01 03:04:07;;;;;;;3.80;1.20;;;;;;;17.23;94.79;98150.56;4147294;28;20623;-86
2022/07/01 03:06:10;;;;;;;3.33;1.30;;;;;;;17.25;94.45;98157.38;4141046;28;20697;-86
2022/07/01 03:08:13;;;;;;;2.73;1.10;;;;;;;17.22;93.55;98160.28;4130058;28;21245;-86
2022/07/01 03:10:16;;;;;;;1.80;1.10;;;;;;;17.18;93.50;98164.13;4143760;28;21250;-86
2022/07/01 03:12:34;;;;;;;1.60;1.03;;;;;;;17.16;93.99;98165.28;4145913;28;20647;-85
2022/07/01 03:14:37;;;;;;;2.97;1.20;;;;;;;17.18;95.62;98172.03;4144344;28;20642;-86
2022/07/01 03:16:42;;;;;;;2.43;1.07;;;;;;;17.20;93.94;98174.53;4143714;28;20698;-86
2022/07/01 03:18:46;;;;;;;2.10;1.30;;;;;;;17.21;95.08;98176.25;4124521;28;20647;-86
2022/07/01 03:20:51;;;;;;;2.70;1.23;;;;;;;17.20;95.77;98167.53;4138816;28;20731;-86
2022/07/01 03:22:54;;;;;;;2.20;1.10;;;;;;;17.21;94.21;98161.25;4126216;28;20644;-86
2022/07/01 03:24:57;;;;;;;1.80;1.30;;;;;;;17.21;96.33;98174.44;4139689;28;20641;-86
2022/07/01 03:27:00;;;;;;;2.63;1.00;;;;;;;17.22;95.93;98180.56;4126856;28;20648;-86
2022/07/01 03:29:04;;;;;;;2.30;1.10;;;;;;;17.23;94.46;98183.06;4141922;28;21219;-86
2022/07/01 03:31:07;;;;;;;3.17;1.20;;;;;;;17.25;96.13;98169.72;4139953;28;20635;-86
2022/07/01 03:33:11;;;;;;;2.60;1.20;;;;;;;17.25;95.20;98169.72;4131936;28;20644;-86
2022/07/01 03:37:35;;;;;;;1.90;1.00;;;;;;;17.29;95.47;98163.16;4123228;28;20642;-86
2022/07/01 03:39:39;;;;;;;2.80;1.20;;;;;;;17.30;94.58;98175.38;4129542;28;20644;-86
2022/07/01 03:41:42;;;;;;;2.63;1.10;;;;;;;17.29;94.73;98193.03;4132563;28;20633;-86
2022/07/01 03:43:45;;;;;;;2.30;1.30;;;;;;;17.31;95.67;98201.63;4149259;28;20659;-86
2022/07/01 03:45:48;;;;;;;3.77;1.20;;;;;;;17.32;96.21;98212.97;4142703;28;20648;-86
2022/07/01 03:47:52;;;;;;;2.00;1.20;;;;;;;17.31;95.90;98211.34;4138511;28;20685;-86
2022/07/01 03:49:56;;;;;;;1.40;0.83;;;;;;;17.32;94.73;98207.72;4129572;28;20653;-86
2022/07/01 03:51:59;;;;;;;6.83;1.73;;;;;;;17.33;96.10;98215.47;4142741;28;21047;-86
2022/07/01 03:56:23;;;;;;;2.00;1.30;;;;;;;17.35;95.46;98244.34;4140193;28;20792;-86
2022/07/01 03:58:26;;;;;;;4.97;2.93;;;;;;;17.36;95.08;98253.94;4128050;28;20648;-86
2022/07/01 04:00:29;;;;;;;2.13;1.23;;;;;;;17.35;95.04;98253.09;4124345;28;20640;-86
2022/07/01 04:02:32;;;;;;;3.20;1.20;;;;;;;17.36;96.51;98251.28;4126329;28;20624;-86
2022/07/01 04:04:36;;;;;;;1.73;1.00;;;;;;;17.36;96.06;98261.84;4130449;28;20698;-86
2022/07/01 04:06:41;;;;;;;8.50;1.70;;;;;;;17.37;95.91;98263.50;4126094;28;21267;-86
2022/07/01 04:08:44;;;;;;;3.30;1.33;;;;;;;17.38;94.76;98266.00;4157190;28;20644;-86
2022/07/01 04:10:49;;;;;;;5.47;1.50;;;;;;;17.37;94.82;98264.34;4129877;28;20770;-86
2022/07/01 04:12:52;;;;;;;1.70;1.10;;;;;;;17.39;94.43;98272.09;4125550;28;20620;-86
2022/07/01 04:15:15;;;;;;;3.20;1.40;;;;;;;17.37;94.54;98271.41;4121219;28;21306;-86
2022/07/01 04:17:18;;;;;;;2.60;1.30;;;;;;;17.34;95.16;98279.63;4141965;28;20651;-86
2022/07/01 04:19:22;;;;;;;2.73;1.50;;;;;;;17.28;95.02;98275.72;4142662;28;20993;-87
2022/07/01 04:23:47;;;;;;;2.17;1.53;;;;;;;17.29;95.62;98293.22;4125054;28;20669;-86
2022/07/01 04:25:50;;;;;;;2.20;1.30;;;;;;;17.29;95.96;98301.13;4126607;28;20747;-86
2022/07/01 04:27:53;;;;;;;1.90;1.40;;;;;;;17.27;95.42;98305.69;4142008;28;20642;-86
2022/07/01 04:29:56;;;;;;;2.13;1.40;;;;;;;17.29;96.06;98310.81;4139845;28;20658;-86
2022/07/01 04:31:59;;;;;;;2.60;1.83;;;;;;;17.29;95.53;98311.69;4144686;28;21069;-86
2022/07/01 04:34:03;;;;;;;3.90;1.60;;;;;;;17.29;95.49;98309.03;4145093;28;20644;-86
2022/07/01 04:36:06;;;;;;;2.90;1.60;;;;;;;17.29;96.54;98314.31;4129279;28;20643;-86
2022/07/01 04:38:09;;;;;;;3.60;1.90;;;;;;;17.28;95.51;98317.91;4130327;28;20636;-86
2022/07/01 04:40:17;;;;;;;2.53;1.67;;;;;;;17.26;95.25;98329.56;4159651;28;20634;-86
2022/07/01 04:42:21;;;;;;;2.53;1.80;;;;;;;17.27;94.93;98339.16;4134664;28;20627;-86
2022/07/01 04:44:25;;;;;;;2.83;1.93;;;;;;;17.20;94.57;98335.34;4138855;28;20635;-87
2022/07/01 04:46:28;;;;;;;3.90;1.97;;;;;;;17.20;94.98;98335.34;4143129;28;20647;-86
2022/07/01 04:48:31;;;;;;;2.67;1.80;;;;;;;17.17;95.05;98328.59;4137605;28;20685;-86
2022/07/01 04:50:35;;;;;;;2.90;1.90;;;;;;;17.19;95.57;98325.81;4131678;28;20734;-87
2022/07/01 04:52:38;;;;;;;3.63;2.63;;;;;;;17.18;95.20;98322.31;4150905;28;21238;-87
2022/07/01 04:54:41;;;;;;;2.93;2.00;;;;;;;17.17;96.06;98314.56;4138905;28;20624;-88
2022/07/01 04:56:46;;;;;;;6.37;4.10;;;;;;;17.14;96.17;98304.31;4147164;28;20686;-88
2022/07/01 04:58:49;;;;;;;4.07;2.50;;;;;;;17.15;95.96;98298.88;4128181;28;20641;-88
2022/07/01 05:00:52;;;;;;;3.80;2.23;;;;;;;17.21;95.59;98310.72;4131467;28;20628;-88
2022/07/01 05:02:55;;;;;;;3.10;2.60;;;;;;;17.21;96.00;98321.25;4135899;28;20731;-87
2022/07/01 05:04:59;;;;;;;3.67;2.77;;;;;;;17.20;96.25;98323.06;4137936;28;20631;-88
2022/07/01 05:07:02;;;;;;;3.50;2.60;;;;;;;17.19;95.54;98323.16;4123459;28;20655;-89
2022/07/01 05:09:05;;;;;;;4.67;2.50;;;;;;;17.19;97.35;98324.00;4123957;28;22293;-87
2022/07/01 05:11:08;;;;;;;9.37;8.43;;;;;;;17.19;96.03;98331.09;4131480;28;20663;-88
2022/07/01 05:13:13;;;;;;;3.97;2.93;;;;;;;17.11;95.74;98330.94;4137332;28;20652;-87
2022/07/01 05:15:16;;;;;;;3.00;2.67;;;;;;;17.07;95.02;98340.09;4145643;28;21205;-87
2022/07/01 05:17:19;;;;;;;4.23;3.03;;;;;;;17.07;96.47;98334.81;4132818;28;20686;-87
2022/07/01 05:21:58;;;;;;;3.80;3.00;;;;;;;17.08;96.41;98329.41;4132459;28;20645;-87
2022/07/01 05:24:03;;;;;;;4.00;3.20;;;;;;;17.11;96.94;98330.94;4131726;28;20633;-88
2022/07/01 05:26:06;;;;;;;5.33;3.20;;;;;;;17.15;96.36;98327.03;4119239;28;20677;-88
2022/07/01 05:28:09;;;;;;;4.00;3.13;;;;;;;17.17;96.92;98320.66;4129681;28;20637;-87
2022/07/01 05:30:14;;;;;;;3.83;3.37;;;;;;;17.21;96.49;98329.16;4138106;28;20733;-88
2022/07/01 05:32:17;;;;;;;4.70;3.50;;;;;;;17.24;96.02;98336.78;4142650;28;21077;-87
2022/07/01 05:34:20;;;;;;;5.50;4.07;;;;;;;17.23;96.38;98353.56;4129501;28;20611;-87
2022/07/01 05:36:23;;;;;;;4.40;3.17;;;;;;;17.24;95.91;98349.97;4141693;28;20698;-87
2022/07/01 05:38:26;;;;;;;5.07;3.50;;;;;;;17.22;95.39;98354.56;4130953;28;20667;-87
2022/07/01 05:40:30;;;;;;;4.57;3.87;;;;;;;17.19;97.60;98355.63;4140748;28;20677;-87
2022/07/01 05:42:33;;;;;;;4.93;3.30;;;;;;;17.21;96.52;98350.25;4146387;28;21262;-87
2022/07/01 05:44:36;;;;;;;5.13;3.20;;;;;;;17.21;96.06;98358.16;4131014;28;20650;-87
2022/07/01 05:46:40;;;;;;;4.23;3.50;;;;;;;17.21;97.07;98350.25;4129012;28;20631;-87
2022/07/01 05:48:44;;;;;;;4.90;3.47;;;;;;;17.21;97.45;98343.16;4134174;28;20706;-89
2022/07/01 05:50:47;;;;;;;7.23;3.70;;;;;;;17.22;95.73;98344.03;4127529;28;21063;-87
2022/07/01 05:52:51;;;;;;;7.27;3.30;;;;;;;17.19;95.30;98320.53;4148019;28;20652;-87
2022/07/01 05:54:54;;;;;;;5.37;3.20;;;;;;;17.19;95.76;98310.81;4128688;28;20700;-87
2022/07/01 05:56:57;;;;;;;5.30;3.50;;;;;;;17.21;96.28;98315.97;4128527;28;20640;-87
2022/07/01 05:59:00;;;;;;;4.73;3.97;;;;;;;17.21;95.25;98310.72;4131284;28;20622;-88
2022/07/01 06:01:03;;;;;;;4.50;3.93;;;;;;;17.17;97.82;98331.22;4131906;28;21287;-88
2022/07/01 06:03:14;;;;;;;5.13;3.60;;;;;;;17.18;96.28;98337.31;4146874;28;20626;-89
2022/07/01 06:05:17;;;;;;;3.83;3.47;;;;;;;17.17;97.59;98344.41;4124117;28;20643;-87
2022/07/01 06:07:21;;;;;;;5.00;3.90;;;;;;;17.17;96.29;98339.13;4138037;28;20632;-86
2022/07/01 06:09:25;;;;;;;5.00;3.80;;;;;;;17.19;96.20;98349.53;4130536;28;20690;-87
2022/07/01 06:11:28;;;;;;;6.90;4.93;;;;;;;17.16;96.76;98350.63;4138959;28;20650;-87
2022/07/01 06:13:31;;;;;;;4.27;3.87;;;;;;;17.15;96.11;98348.13;4139929;28;21181;-88
2022/07/01 06:15:53;;;;;;;4.03;3.60;;;;;;;17.14;97.01;98357.03;4129449;28;21303;-87
2022/07/01 06:17:57;;;;;;;5.20;4.10;;;;;;;17.16;96.99;98355.09;4136971;28;20685;-86
2022/07/01 06:20:01;;;;;;;4.97;3.83;;;;;;;17.16;95.74;98350.63;4125989;28;21248;-87
2022/07/01 06:22:05;;;;;;;4.50;4.10;;;;;;;17.14;95.33;98331.50;4141118;28;20631;-87
2022/07/01 06:24:08;;;;;;;5.20;3.97;;;;;;;17.12;95.22;98324.69;4122178;28;20647;-87
2022/07/01 06:26:11;;;;;;;5.40;4.10;;;;;;;17.13;97.00;98326.38;4157418;28;21310;-87
2022/07/01 06:28:15;;;;;;;5.23;4.73;;;;;;;17.11;95.40;98333.59;4139809;28;20645;-87
2022/07/01 06:30:18;;;;;;;5.33;3.97;;;;;;;17.08;95.97;98339.97;4122673;28;20720;-87
2022/07/01 06:32:21;;;;;;;4.10;3.70;;;;;;;17.10;96.40;98350.38;4121558;28;20666;-87
2022/07/01 06:34:24;;;;;;;4.20;3.80;;;;;;;17.11;96.24;98346.78;4145869;28;20611;-87
2022/07/01 06:36:29;;;;;;;4.30;3.77;;;;;;;17.14;97.63;98357.03;4136741;28;20645;-88
2022/07/01 06:38:32;;;;;;;8.63;4.10;;;;;;;17.11;96.17;98354.69;4137212;28;21105;-88
2022/07/01 06:40:35;;;;;;;4.50;3.90;;;;;;;17.11;96.58;98359.94;4128881;28;20685;-88
2022/07/01 06:42:38;;;;;;;6.40;4.30;;;;;;;17.12;96.16;98364.22;4142591;28;21031;-87
2022/07/01 06:44:41;;;;;;;5.67;4.20;;;;;;;17.12;96.01;98364.22;4133248;28;20721;-88
2022/07/01 06:46:45;;;;;;;5.40;4.47;;;;;;;17.12;96.85;98364.22;4142808;28;20625;-87
2022/07/01 06:48:48;;;;;;;5.50;4.23;;;;;;;17.11;96.76;98359.94;4128867;28;20621;-87
2022/07/01 06:50:51;;;;;;;6.70;4.20;;;;;;;17.09;95.27;98370.63;4142293;28;20748;-87
2022/07/01 06:52:56;;;;;;;7.03;4.50;;;;;;;17.09;96.77;98370.63;4135873;28;20743;-87
2022/07/01 06:55:00;;;;;;;6.23;4.53;;;;;;;17.11;98.02;98373.13;4140633;28;20695;-89
2022/07/01 06:57:04;;;;;;;5.47;4.83;;;;;;;17.14;96.96;98372.84;4139291;28;21006;-88
2022/07/01 06:59:07;;;;;;;5.20;4.70;;;;;;;17.17;97.88;98386.59;4129565;28;20642;-88
2022/07/01 07:01:10;;;;;;;5.70;4.20;;;;;;;17.19;97.10;98386.44;4123751;28;21240;-88
2022/07/01 07:03:14;;;;;;;6.00;5.03;;;;;;;17.20;97.39;98385.44;4145021;28;20643;-88
2022/07/01 07:05:17;;;;;;;5.80;4.73;;;;;;;17.22;97.74;98380.94;4139465;28;21109;-88
2022/07/01 07:07:20;;;;;;;6.20;4.30;;;;;;;17.26;96.15;98388.44;4140184;28;21028;-88
2022/07/01 07:09:25;;;;;;;9.03;5.30;;;;;;;17.31;97.38;98388.00;4137375;28;20630;-88
2022/07/01 07:11:28;;;;;;;5.83;4.80;;;;;;;17.36;96.61;98397.16;4135396;28;21032;-88
2022/07/01 07:13:32;;;;;;;5.27;4.77;;;;;;;17.41;98.56;98392.31;4128283;28;20661;-88
2022/07/01 07:15:35;;;;;;;5.47;4.90;;;;;;;17.48;97.63;98402.16;4142870;28;20974;-89
2022/07/01 07:17:38;;;;;;;5.83;5.20;;;;;;;17.55;97.08;98407.72;4131529;28;20645;-90
2022/07/01 07:19:41;;;;;;;5.70;5.10;;;;;;;17.58;96.51;98413.53;4129046;28;21068;-89
2022/07/01 07:21:44;;;;;;;5.50;5.00;;;;;;;17.58;96.25;98412.72;4128290;28;20630;-89
2022/07/01 07:23:47;;;;;;;5.43;4.93;;;;;;;17.57;96.46;98411.03;4128747;28;20640;-89
2022/07/01 07:25:51;;;;;;;6.17;4.80;;;;;;;17.56;96.21;98419.91;4138682;28;20648;-89
2022/07/01 07:27:54;;;;;;;8.00;5.13;;;;;;;17.51;96.70;98417.72;4143193;28;20718;-89
2022/07/01 07:29:57;;;;;;;5.90;5.30;;;;;;;17.50;96.50;98407.31;4142341;28;20715;-88
2022/07/01 07:32:01;;;;;;;5.63;5.10;;;;;;;17.48;95.24;98419.78;4136338;28;20650;-88
2022/07/01 07:34:04;;;;;;;6.37;5.43;;;;;;;17.50;97.08;98418.69;4128689;28;20636;-88
2022/07/01 07:36:07;;;;;;;5.83;5.17;;;;;;;17.51;96.89;98427.41;4136775;28;20646;-87
2022/07/01 07:38:10;;;;;;;5.60;4.93;;;;;;;17.50;95.56;98431.88;4130186;28;20637;-87
2022/07/01 07:40:17;;;;;;;6.50;5.50;;;;;;;17.52;95.50;98426.44;4139711;28;20632;-87
2022/07/01 07:42:22;;;;;;;6.30;4.77;;;;;;;17.51;95.99;98420.34;4120294;28;20704;-87
2022/07/01 07:44:25;;;;;;;4.90;4.40;;;;;;;17.52;95.97;98411.44;4137542;28;20726;-87
2022/07/01 07:46:29;;;;;;;7.00;5.03;;;;;;;17.55;95.53;98415.63;4140003;28;21276;-87
2022/07/01 07:48:32;;;;;;;5.63;4.70;;;;;;;17.57;95.31;98419.78;4149420;28;20658;-87
2022/07/01 07:50:35;;;;;;;6.30;4.60;;;;;;;17.60;94.89;98427.41;4122794;28;21224;-87
2022/07/01 07:52:38;;;;;;;5.60;4.77;;;;;;;17.62;95.01;98430.75;4139172;28;21360;-87
2022/07/01 07:54:41;;;;;;;5.00;3.83;;;;;;;17.61;94.45;98425.63;4126362;28;20661;-88
2022/07/01 07:56:45;;;;;;;5.17;4.37;;;;;;;17.61;95.49;98413.25;4125932;28;21200;-89
2022/07/01 07:58:49;;;;;;;4.33;3.90;;;;;;;17.64;94.29;98415.63;4135235;28;21253;-88
2022/07/01 08:00:52;;;;;;;5.13;4.63;;;;;;;17.68;94.04;98426.72;4143215;28;20667;-88
2022/07/01 08:02:55;;;;;;;7.97;4.53;;;;;;;17.68;94.56;98427.56;4143803;28;21132;-88
2022/07/01 08:04:58;;;;;;;6.10;4.20;;;;;;;17.65;92.53;98427.84;4145626;28;20642;-88
2022/07/01 08:07:04;;;;;;;4.40;4.00;;;;;;;17.62;93.83;98428.13;4142717;28;20714;-88
2022/07/01 08:09:07;;;;;;;4.73;4.20;;;;;;;17.62;93.87;98435.19;4131632;28;20661;-88
2022/07/01 08:11:11;;;;;;;6.50;3.97;;;;;;;17.62;93.57;98433.41;4141032;28;21222;-89
2022/07/01 08:13:14;;;;;;;5.30;4.37;;;;;;;17.61;93.64;98431.72;4142066;28;21055;-88
2022/07/01 08:15:18;;;;;;;8.53;4.47;;;;;;;17.65;95.30;98430.47;4128569;28;20669;-89
2022/07/01 08:17:21;;;;;;;5.27;4.07;;;;;;;17.68;95.01;98434.63;4129002;28;20690;-88
2022/07/01 08:19:25;;;;;;;4.70;4.10;;;;;;;17.66;94.29;98442.69;4146986;28;20638;-89
2022/07/01 08:21:28;;;;;;;4.33;3.80;;;;;;;17.62;94.00;98432.53;4157297;28;20680;-88
2022/07/01 08:23:31;;;;;;;5.13;4.63;;;;;;;17.59;93.80;98432.81;4142829;28;20640;-88
2022/07/01 08:25:34;;;;;;;5.43;4.53;;;;;;;17.57;93.51;98438.22;4140619;28;20708;-88
2022/07/01 08:27:37;;;;;;;5.47;4.50;;;;;;;17.57;92.76;98440.06;4123614;28;20644;-88
2022/07/01 08:29:41;;;;;;;4.33;3.93;;;;;;;17.50;92.50;98434.50;4131244;28;20753;-88
2022/07/01 08:31:45;;;;;;;5.67;4.20;;;;;;;17.46;94.23;98438.38;4119710;28;20693;-88
2022/07/01 08:33:55;;;;;;;5.10;4.60;;;;;;;17.48;94.20;98456.72;4118704;28;20648;-88
2022/07/01 08:35:58;;;;;;;7.73;4.50;;;;;;;17.48;94.79;98459.34;4137688;28;21220;-88
2022/07/01 08:38:02;;;;;;;5.23;4.73;;;;;;;17.48;95.04;98461.97;4140122;28;20681;-88
2022/07/01 08:40:06;;;;;;;5.93;5.20;;;;;;;17.46;94.57;98437.56;4124488;28;20640;-88
2022/07/01 08:42:09;;;;;;;7.80;4.63;;;;;;;17.45;93.19;98442.97;4140729;28;20641;-88
2022/07/01 08:44:12;;;;;;;6.43;4.60;;;;;;;17.43;93.29;98455.47;4127246;28;20646;-88
2022/07/01 08:46:15;;;;;;;5.53;5.00;;;;;;;17.42;93.43;98467.81;4146022;28;20623;-88
2022/07/01 08:48:20;;;;;;;5.77;4.50;;;;;;;17.42;94.17;98469.63;4134383;28;20631;-88
2022/07/01 08:50:24;;;;;;;5.30;4.50;;;;;;;17.41;95.00;98475.84;4146551;28;20622;-88
2022/07/01 08:52:27;;;;;;;7.20;4.60;;;;;;;17.41;95.44;98481.13;4127556;28;20655;-88
2022/07/01 08:54:57;;;;;;;5.97;4.83;;;;;;;17.41;94.66;98482.00;4116802;28;20628;-88
2022/07/01 08:57:00;;;;;;;6.13;5.27;;;;;;;17.40;95.95;98482.94;4073981;29;20706;-88
2022/07/01 08:59:05;;;;;;;8.53;5.50;;;;;;;17.42;95.03;98488.09;4094371;28;21065;-88
2022/07/01 09:01:15;;;;;;;5.60;5.00;;;;;;;17.41;95.75;98482.00;4110877;28;20632;-88
2022/07/01 09:03:24;;;;;;;7.27;5.00;;;;;;;17.37;95.46;98488.50;4104880;28;21554;-88
2022/07/01 09:05:28;;;;;;;6.00;4.03;;;;;;;17.37;95.50;98479.75;4113514;28;20639;-88
2022/07/01 09:07:33;;;;;;;4.93;4.43;;;;;;;17.32;94.31;98477.53;4111577;28;21220;-88
2022/07/01 09:09:42;;;;;;;6.87;4.50;;;;;;;17.31;94.49;98481.13;4128698;28;20633;-88
2022/07/01 09:11:53;;;;;;;5.77;4.03;;;;;;;17.31;96.18;98485.56;4141030;28;20688;-88
2022/07/01 09:14:09;;;;;;;4.80;4.30;;;;;;;17.31;95.92;98496.94;4138294;28;20669;-88
2022/07/01 09:16:14;;;;;;;4.20;3.63;;;;;;;17.31;95.51;98501.41;4124819;28;20748;-88
2022/07/01 09:18:18;;;;;;;4.10;3.50;;;;;;;17.30;94.37;98505.81;4120643;28;21329;-88
2022/07/01 09:20:27;;;;;;;3.93;3.53;;;;;;;17.26;95.06;98503.59;4137135;28;20645;-88
2022/07/01 09:22:30;;;;;;;4.07;3.47;;;;;;;17.25;94.98;98501.94;4138632;28;20638;-88
2022/07/01 09:24:35;;;;;;;4.30;3.90;;;;;;;17.24;94.88;98503.72;4147305;28;20644;-88
2022/07/01 09:26:40;;;;;;;6.67;3.67;;;;;;;17.22;95.87;98502.22;4126078;28;20623;-88
2022/07/01 09:28:43;;;;;;;4.47;3.63;;;;;;;17.25;94.64;98517.75;4138817;28;21262;-86
2022/07/01 09:30:47;;;;;;;3.90;3.30;;;;;;;17.22;93.96;98507.47;4129508;28;20638;-87
2022/07/01 09:33:05;;;;;;;4.37;3.93;;;;;;;17.18;95.22;98511.31;4144983;28;20765;-87
2022/07/01 09:35:23;;;;;;;3.90;3.50;;;;;;;17.18;96.17;98492.84;4127075;28;20667;-86
2022/07/01 09:37:27;;;;;;;4.10;3.47;;;;;;;17.20;95.54;98481.25;4142465;28;20705;-86
2022/07/01 09:39:31;;;;;;;4.57;3.37;;;;;;;17.21;95.63;98469.72;4141787;28;20640;-86
2022/07/01 09:41:41;;;;;;;4.73;4.23;;;;;;;17.25;95.86;98465.03;4145616;28;21202;-86
2022/07/01 09:43:44;;;;;;;7.03;4.37;;;;;;;17.29;95.16;98463.75;4130778;28;21227;-87
2022/07/01 09:45:56;;;;;;;5.50;4.10;;;;;;;17.32;96.10;98480.16;4144341;28;21039;-86
2022/07/01 09:47:59;;;;;;;5.67;4.53;;;;;;;17.36;96.95;98505.28;4126670;28;21075;-87
2022/07/01 09:50:05;;;;;;;4.33;3.93;;;;;;;17.39;97.05;98514.72;4130334;28;20649;-87
2022/07/01 09:52:08;;;;;;;4.00;3.60;;;;;;;17.42;96.52;98525.00;4137421;28;20625;-86
2022/07/01 09:54:13;;;;;;;3.77;3.37;;;;;;;17.44;96.54;98529.19;4136728;28;21246;-86